sensor_id;sensor_type;location;lat;lon;timestamp;P1;durP1;ratioP1;P2;durP2;ratioP2
46222;SDS011;31943;51.410;7.564;2022-11-20T00:01:03;26.27;;;14.45;;
46222;SDS011;31943;51.410;7.564;2022-11-20T00:03:30;20.20;;;14.32;;
46222;SDS011;31943;51.410;7.564;2022-11-20T00:06:00;24.85;;;15.18;;
46222;SDS011;31943;51.410;7.564;2022-11-20T00:08:27;22.52;;;13.93;;
46222;SDS011;31943;51.410;7.564;2022-11-20T00:10:53;21.67;;;13.88;;
46222;SDS011;31943;51.410;7.564;2022-11-20T00:13:19;17.45;;;13.35;;
46222;SDS011;31943;51.410;7.564;2022-11-20T00:15:44;17.05;;;12.25;;
46222;SDS011;31943;51.410;7.564;2022-11-20T00:18:10;24.73;;;14.35;;
46222;SDS011;31943;51.410;7.564;2022-11-20T00:20:35;19.70;;;13.80;;
46222;SDS011;31943;51.410;7.564;2022-11-20T00:23:02;18.55;;;12.98;;
46222;SDS011;31943;51.410;7.564;2022-11-20T00:25:28;22.15;;;14.68;;
46222;SDS011;31943;51.410;7.564;2022-11-20T00:27:54;19.20;;;13.93;;
46222;SDS011;31943;51.410;7.564;2022-11-20T00:30:19;19.73;;;14.93;;
46222;SDS011;31943;51.410;7.564;2022-11-20T00:32:45;19.63;;;13.00;;
46222;SDS011;31943;51.410;7.564;2022-11-20T00:35:10;20.67;;;14.60;;
46222;SDS011;31943;51.410;7.564;2022-11-20T00:37:36;20.85;;;14.23;;
46222;SDS011;31943;51.410;7.564;2022-11-20T00:40:04;21.27;;;13.95;;
46222;SDS011;31943;51.410;7.564;2022-11-20T00:42:31;19.05;;;14.32;;
46222;SDS011;31943;51.410;7.564;2022-11-20T00:44:56;19.75;;;14.52;;
46222;SDS011;31943;51.410;7.564;2022-11-20T00:47:22;20.27;;;14.65;;
46222;SDS011;31943;51.410;7.564;2022-11-20T00:49:48;20.55;;;14.88;;
46222;SDS011;31943;51.410;7.564;2022-11-20T00:52:13;20.38;;;14.63;;
46222;SDS011;31943;51.410;7.564;2022-11-20T00:54:39;21.65;;;14.75;;
46222;SDS011;31943;51.410;7.564;2022-11-20T00:57:07;17.60;;;12.48;;
46222;SDS011;31943;51.410;7.564;2022-11-20T00:59:32;22.98;;;14.45;;
46222;SDS011;31943;51.410;7.564;2022-11-20T01:01:58;19.10;;;13.18;;
46222;SDS011;31943;51.410;7.564;2022-11-20T01:04:24;18.42;;;14.00;;
46222;SDS011;31943;51.410;7.564;2022-11-20T01:06:49;19.15;;;14.48;;
46222;SDS011;31943;51.410;7.564;2022-11-20T01:09:15;18.00;;;13.52;;
46222;SDS011;31943;51.410;7.564;2022-11-20T01:11:41;20.85;;;14.05;;
46222;SDS011;31943;51.410;7.564;2022-11-20T01:14:11;19.25;;;14.48;;
46222;SDS011;31943;51.410;7.564;2022-11-20T01:16:38;17.60;;;13.80;;
46222;SDS011;31943;51.410;7.564;2022-11-20T01:19:06;19.38;;;13.65;;
46222;SDS011;31943;51.410;7.564;2022-11-20T01:21:33;19.40;;;13.32;;
46222;SDS011;31943;51.410;7.564;2022-11-20T01:24:01;21.33;;;14.30;;
46222;SDS011;31943;51.410;7.564;2022-11-20T01:26:27;21.77;;;13.98;;
46222;SDS011;31943;51.410;7.564;2022-11-20T01:28:55;19.23;;;14.52;;
46222;SDS011;31943;51.410;7.564;2022-11-20T01:31:23;18.48;;;13.13;;
46222;SDS011;31943;51.410;7.564;2022-11-20T01:33:51;18.92;;;13.48;;
46222;SDS011;31943;51.410;7.564;2022-11-20T01:36:18;18.98;;;14.45;;
46222;SDS011;31943;51.410;7.564;2022-11-20T01:38:45;20.80;;;13.77;;
46222;SDS011;31943;51.410;7.564;2022-11-20T01:41:12;24.08;;;16.45;;
46222;SDS011;31943;51.410;7.564;2022-11-20T01:43:39;25.30;;;15.77;;
46222;SDS011;31943;51.410;7.564;2022-11-20T01:46:08;25.65;;;18.02;;
46222;SDS011;31943;51.410;7.564;2022-11-20T01:48:41;23.90;;;16.60;;
46222;SDS011;31943;51.410;7.564;2022-11-20T01:51:17;22.00;;;15.52;;
46222;SDS011;31943;51.410;7.564;2022-11-20T01:53:48;25.80;;;17.67;;
46222;SDS011;31943;51.410;7.564;2022-11-20T01:56:16;23.75;;;16.90;;
46222;SDS011;31943;51.410;7.564;2022-11-20T01:58:43;26.23;;;15.98;;
46222;SDS011;31943;51.410;7.564;2022-11-20T02:01:17;19.77;;;14.40;;
46222;SDS011;31943;51.410;7.564;2022-11-20T02:03:44;23.90;;;16.65;;
46222;SDS011;31943;51.410;7.564;2022-11-20T02:06:11;26.75;;;17.15;;
46222;SDS011;31943;51.410;7.564;2022-11-20T02:08:41;22.40;;;15.88;;
46222;SDS011;31943;51.410;7.564;2022-11-20T02:11:07;22.77;;;15.70;;
46222;SDS011;31943;51.410;7.564;2022-11-20T02:13:34;21.77;;;15.02;;
46222;SDS011;31943;51.410;7.564;2022-11-20T02:16:00;24.80;;;16.17;;
46222;SDS011;31943;51.410;7.564;2022-11-20T02:18:26;17.33;;;13.05;;
46222;SDS011;31943;51.410;7.564;2022-11-20T02:20:54;18.27;;;13.50;;
46222;SDS011;31943;51.410;7.564;2022-11-20T02:23:25;19.58;;;13.70;;
46222;SDS011;31943;51.410;7.564;2022-11-20T02:25:59;18.90;;;13.35;;
46222;SDS011;31943;51.410;7.564;2022-11-20T02:28:27;19.83;;;14.13;;
46222;SDS011;31943;51.410;7.564;2022-11-20T02:30:53;18.55;;;13.52;;
46222;SDS011;31943;51.410;7.564;2022-11-20T02:33:19;23.38;;;15.48;;
46222;SDS011;31943;51.410;7.564;2022-11-20T02:35:45;23.73;;;16.00;;
46222;SDS011;31943;51.410;7.564;2022-11-20T02:38:11;21.73;;;15.85;;
46222;SDS011;31943;51.410;7.564;2022-11-20T02:40:39;21.65;;;15.88;;
46222;SDS011;31943;51.410;7.564;2022-11-20T02:43:06;23.73;;;15.98;;
46222;SDS011;31943;51.410;7.564;2022-11-20T02:45:32;20.52;;;15.43;;
46222;SDS011;31943;51.410;7.564;2022-11-20T02:47:59;19.85;;;15.18;;
46222;SDS011;31943;51.410;7.564;2022-11-20T02:50:25;21.95;;;15.15;;
46222;SDS011;31943;51.410;7.564;2022-11-20T02:52:50;22.42;;;15.57;;
46222;SDS011;31943;51.410;7.564;2022-11-20T02:55:17;19.48;;;14.95;;
46222;SDS011;31943;51.410;7.564;2022-11-20T02:57:43;21.38;;;15.40;;
46222;SDS011;31943;51.410;7.564;2022-11-20T03:00:11;24.02;;;16.38;;
46222;SDS011;31943;51.410;7.564;2022-11-20T03:02:37;22.45;;;15.02;;
46222;SDS011;31943;51.410;7.564;2022-11-20T03:05:04;23.55;;;16.13;;
46222;SDS011;31943;51.410;7.564;2022-11-20T03:07:30;20.70;;;14.82;;
46222;SDS011;31943;51.410;7.564;2022-11-20T03:09:55;23.77;;;15.98;;
46222;SDS011;31943;51.410;7.564;2022-11-20T03:12:21;20.80;;;14.55;;
46222;SDS011;31943;51.410;7.564;2022-11-20T03:14:47;21.33;;;16.05;;
46222;SDS011;31943;51.410;7.564;2022-11-20T03:17:14;21.13;;;16.27;;
46222;SDS011;31943;51.410;7.564;2022-11-20T03:19:40;22.75;;;16.27;;
46222;SDS011;31943;51.410;7.564;2022-11-20T03:22:06;22.85;;;15.48;;
46222;SDS011;31943;51.410;7.564;2022-11-20T03:24:31;21.83;;;15.23;;
46222;SDS011;31943;51.410;7.564;2022-11-20T03:26:57;24.80;;;16.15;;
46222;SDS011;31943;51.410;7.564;2022-11-20T03:29:23;21.92;;;17.00;;
46222;SDS011;31943;51.410;7.564;2022-11-20T03:31:48;20.20;;;15.35;;
46222;SDS011;31943;51.410;7.564;2022-11-20T03:34:16;25.23;;;16.88;;
46222;SDS011;31943;51.410;7.564;2022-11-20T03:36:42;22.67;;;15.32;;
46222;SDS011;31943;51.410;7.564;2022-11-20T03:39:08;21.88;;;15.82;;
46222;SDS011;31943;51.410;7.564;2022-11-20T03:41:35;19.42;;;14.18;;
46222;SDS011;31943;51.410;7.564;2022-11-20T03:44:02;21.40;;;15.90;;
46222;SDS011;31943;51.410;7.564;2022-11-20T03:46:29;22.50;;;15.00;;
46222;SDS011;31943;51.410;7.564;2022-11-20T03:48:55;20.10;;;14.95;;
46222;SDS011;31943;51.410;7.564;2022-11-20T03:51:23;19.90;;;14.68;;
46222;SDS011;31943;51.410;7.564;2022-11-20T03:53:50;21.40;;;14.77;;
46222;SDS011;31943;51.410;7.564;2022-11-20T03:56:18;17.10;;;13.02;;
46222;SDS011;31943;51.410;7.564;2022-11-20T03:58:45;16.33;;;12.65;;
46222;SDS011;31943;51.410;7.564;2022-11-20T04:01:14;17.98;;;13.25;;
46222;SDS011;31943;51.410;7.564;2022-11-20T04:03:41;16.40;;;13.10;;
46222;SDS011;31943;51.410;7.564;2022-11-20T04:06:10;17.90;;;13.73;;
46222;SDS011;31943;51.410;7.564;2022-11-20T04:08:40;18.27;;;13.55;;
46222;SDS011;31943;51.410;7.564;2022-11-20T04:11:10;17.15;;;13.93;;
46222;SDS011;31943;51.410;7.564;2022-11-20T04:13:37;19.70;;;13.50;;
46222;SDS011;31943;51.410;7.564;2022-11-20T04:16:03;19.08;;;14.50;;
46222;SDS011;31943;51.410;7.564;2022-11-20T04:18:29;22.35;;;15.57;;
46222;SDS011;31943;51.410;7.564;2022-11-20T04:20:55;23.90;;;16.30;;
46222;SDS011;31943;51.410;7.564;2022-11-20T04:23:21;22.42;;;15.93;;
46222;SDS011;31943;51.410;7.564;2022-11-20T04:25:49;24.10;;;16.67;;
46222;SDS011;31943;51.410;7.564;2022-11-20T04:28:14;19.55;;;14.00;;
46222;SDS011;31943;51.410;7.564;2022-11-20T04:30:41;22.27;;;15.70;;
46222;SDS011;31943;51.410;7.564;2022-11-20T04:33:07;21.75;;;15.00;;
46222;SDS011;31943;51.410;7.564;2022-11-20T04:35:34;20.00;;;14.50;;
46222;SDS011;31943;51.410;7.564;2022-11-20T04:38:00;19.05;;;14.93;;
46222;SDS011;31943;51.410;7.564;2022-11-20T04:40:27;20.70;;;15.27;;
46222;SDS011;31943;51.410;7.564;2022-11-20T04:42:54;20.17;;;14.43;;
46222;SDS011;31943;51.410;7.564;2022-11-20T04:45:21;21.70;;;15.40;;
46222;SDS011;31943;51.410;7.564;2022-11-20T04:47:47;22.80;;;15.07;;
46222;SDS011;31943;51.410;7.564;2022-11-20T04:50:13;20.08;;;14.80;;
46222;SDS011;31943;51.410;7.564;2022-11-20T04:52:39;21.40;;;15.43;;
46222;SDS011;31943;51.410;7.564;2022-11-20T04:55:05;19.38;;;14.05;;
46222;SDS011;31943;51.410;7.564;2022-11-20T04:57:31;21.52;;;14.73;;
46222;SDS011;31943;51.410;7.564;2022-11-20T04:59:59;18.52;;;13.80;;
46222;SDS011;31943;51.410;7.564;2022-11-20T05:02:24;20.10;;;14.63;;
46222;SDS011;31943;51.410;7.564;2022-11-20T05:04:50;19.98;;;13.85;;
46222;SDS011;31943;51.410;7.564;2022-11-20T05:07:16;17.85;;;13.40;;
46222;SDS011;31943;51.410;7.564;2022-11-20T05:09:42;17.55;;;14.10;;
46222;SDS011;31943;51.410;7.564;2022-11-20T05:12:07;18.17;;;13.77;;
46222;SDS011;31943;51.410;7.564;2022-11-20T05:14:35;20.92;;;14.23;;
46222;SDS011;31943;51.410;7.564;2022-11-20T05:17:02;19.10;;;14.18;;
46222;SDS011;31943;51.410;7.564;2022-11-20T05:19:27;17.55;;;13.30;;
46222;SDS011;31943;51.410;7.564;2022-11-20T05:21:53;18.50;;;14.18;;
46222;SDS011;31943;51.410;7.564;2022-11-20T05:24:20;21.10;;;15.00;;
46222;SDS011;31943;51.410;7.564;2022-11-20T05:26:46;18.75;;;13.95;;
46222;SDS011;31943;51.410;7.564;2022-11-20T05:29:11;18.58;;;14.45;;
46222;SDS011;31943;51.410;7.564;2022-11-20T05:31:38;18.25;;;13.30;;
46222;SDS011;31943;51.410;7.564;2022-11-20T05:34:07;19.20;;;14.27;;
46222;SDS011;31943;51.410;7.564;2022-11-20T05:36:33;17.98;;;13.45;;
46222;SDS011;31943;51.410;7.564;2022-11-20T05:38:59;18.98;;;14.02;;
46222;SDS011;31943;51.410;7.564;2022-11-20T05:41:24;16.92;;;13.38;;
46222;SDS011;31943;51.410;7.564;2022-11-20T05:43:50;20.83;;;15.35;;
46222;SDS011;31943;51.410;7.564;2022-11-20T05:46:17;19.02;;;15.07;;
46222;SDS011;31943;51.410;7.564;2022-11-20T05:48:44;19.40;;;14.57;;
46222;SDS011;31943;51.410;7.564;2022-11-20T05:51:13;20.48;;;14.30;;
46222;SDS011;31943;51.410;7.564;2022-11-20T05:53:41;19.02;;;15.82;;
46222;SDS011;31943;51.410;7.564;2022-11-20T05:56:08;20.02;;;15.13;;
46222;SDS011;31943;51.410;7.564;2022-11-20T05:58:36;20.50;;;14.93;;
46222;SDS011;31943;51.410;7.564;2022-11-20T06:01:03;20.65;;;15.15;;
46222;SDS011;31943;51.410;7.564;2022-11-20T06:03:34;20.40;;;15.27;;
46222;SDS011;31943;51.410;7.564;2022-11-20T06:05:59;17.55;;;13.55;;
46222;SDS011;31943;51.410;7.564;2022-11-20T06:08:27;21.75;;;14.68;;
46222;SDS011;31943;51.410;7.564;2022-11-20T06:10:52;19.15;;;14.85;;
46222;SDS011;31943;51.410;7.564;2022-11-20T06:13:18;21.42;;;15.65;;
46222;SDS011;31943;51.410;7.564;2022-11-20T06:15:47;17.88;;;13.05;;
46222;SDS011;31943;51.410;7.564;2022-11-20T06:18:13;19.02;;;14.27;;
46222;SDS011;31943;51.410;7.564;2022-11-20T06:20:39;17.92;;;14.40;;
46222;SDS011;31943;51.410;7.564;2022-11-20T06:23:05;19.52;;;14.50;;
46222;SDS011;31943;51.410;7.564;2022-11-20T06:25:32;18.38;;;13.13;;
46222;SDS011;31943;51.410;7.564;2022-11-20T06:27:58;18.15;;;14.07;;
46222;SDS011;31943;51.410;7.564;2022-11-20T06:30:24;17.95;;;13.35;;
46222;SDS011;31943;51.410;7.564;2022-11-20T06:32:49;20.38;;;14.15;;
46222;SDS011;31943;51.410;7.564;2022-11-20T06:35:15;18.08;;;14.27;;
46222;SDS011;31943;51.410;7.564;2022-11-20T06:37:41;19.40;;;13.70;;
46222;SDS011;31943;51.410;7.564;2022-11-20T06:40:08;17.58;;;13.18;;
46222;SDS011;31943;51.410;7.564;2022-11-20T06:42:36;16.58;;;13.18;;
46222;SDS011;31943;51.410;7.564;2022-11-20T06:45:03;18.55;;;14.60;;
46222;SDS011;31943;51.410;7.564;2022-11-20T06:47:29;22.05;;;14.18;;
46222;SDS011;31943;51.410;7.564;2022-11-20T06:49:55;18.17;;;14.32;;
46222;SDS011;31943;51.410;7.564;2022-11-20T06:52:22;19.02;;;14.60;;
46222;SDS011;31943;51.410;7.564;2022-11-20T06:54:48;17.45;;;13.23;;
46222;SDS011;31943;51.410;7.564;2022-11-20T06:57:13;19.23;;;13.95;;
46222;SDS011;31943;51.410;7.564;2022-11-20T06:59:40;16.50;;;13.52;;
46222;SDS011;31943;51.410;7.564;2022-11-20T07:02:08;16.17;;;12.93;;
46222;SDS011;31943;51.410;7.564;2022-11-20T07:04:35;20.88;;;13.48;;
46222;SDS011;31943;51.410;7.564;2022-11-20T07:07:00;15.63;;;11.68;;
46222;SDS011;31943;51.410;7.564;2022-11-20T07:09:26;17.40;;;13.15;;
46222;SDS011;31943;51.410;7.564;2022-11-20T07:11:51;22.17;;;14.18;;
46222;SDS011;31943;51.410;7.564;2022-11-20T07:14:17;18.10;;;12.48;;
46222;SDS011;31943;51.410;7.564;2022-11-20T07:16:44;16.13;;;12.93;;
46222;SDS011;31943;51.410;7.564;2022-11-20T07:19:10;17.38;;;13.25;;
46222;SDS011;31943;51.410;7.564;2022-11-20T07:21:35;16.05;;;12.07;;
46222;SDS011;31943;51.410;7.564;2022-11-20T07:24:01;16.30;;;12.27;;
46222;SDS011;31943;51.410;7.564;2022-11-20T07:26:26;16.55;;;12.95;;
46222;SDS011;31943;51.410;7.564;2022-11-20T07:28:52;17.05;;;13.18;;
46222;SDS011;31943;51.410;7.564;2022-11-20T07:31:18;19.33;;;12.23;;
46222;SDS011;31943;51.410;7.564;2022-11-20T07:33:45;14.93;;;11.80;;
46222;SDS011;31943;51.410;7.564;2022-11-20T07:36:10;15.90;;;12.43;;
46222;SDS011;31943;51.410;7.564;2022-11-20T07:38:36;17.20;;;12.10;;
46222;SDS011;31943;51.410;7.564;2022-11-20T07:41:02;15.90;;;12.52;;
46222;SDS011;31943;51.410;7.564;2022-11-20T07:43:29;15.05;;;11.82;;
46222;SDS011;31943;51.410;7.564;2022-11-20T07:45:56;16.95;;;12.43;;
46222;SDS011;31943;51.410;7.564;2022-11-20T07:48:23;15.57;;;12.00;;
46222;SDS011;31943;51.410;7.564;2022-11-20T07:50:52;18.00;;;12.45;;
46222;SDS011;31943;51.410;7.564;2022-11-20T07:53:18;13.75;;;10.93;;
46222;SDS011;31943;51.410;7.564;2022-11-20T07:55:44;13.63;;;11.13;;
46222;SDS011;31943;51.410;7.564;2022-11-20T07:58:09;15.57;;;11.35;;
46222;SDS011;31943;51.410;7.564;2022-11-20T08:00:36;14.68;;;11.15;;
46222;SDS011;31943;51.410;7.564;2022-11-20T08:03:02;13.50;;;10.85;;
46222;SDS011;31943;51.410;7.564;2022-11-20T08:05:28;16.98;;;11.98;;
46222;SDS011;31943;51.410;7.564;2022-11-20T08:07:57;16.10;;;10.90;;
46222;SDS011;31943;51.410;7.564;2022-11-20T08:10:23;15.63;;;11.35;;
46222;SDS011;31943;51.410;7.564;2022-11-20T08:12:51;14.43;;;10.43;;
46222;SDS011;31943;51.410;7.564;2022-11-20T08:15:18;12.45;;;9.52;;
46222;SDS011;31943;51.410;7.564;2022-11-20T08:17:44;13.73;;;10.48;;
46222;SDS011;31943;51.410;7.564;2022-11-20T08:20:10;13.20;;;10.43;;
46222;SDS011;31943;51.410;7.564;2022-11-20T08:22:36;12.73;;;9.63;;
46222;SDS011;31943;51.410;7.564;2022-11-20T08:25:04;12.32;;;10.15;;
46222;SDS011;31943;51.410;7.564;2022-11-20T08:27:31;14.77;;;10.57;;
46222;SDS011;31943;51.410;7.564;2022-11-20T08:29:56;13.70;;;10.30;;
46222;SDS011;31943;51.410;7.564;2022-11-20T08:32:22;13.30;;;9.70;;
46222;SDS011;31943;51.410;7.564;2022-11-20T08:34:48;13.10;;;9.02;;
46222;SDS011;31943;51.410;7.564;2022-11-20T08:37:14;13.43;;;9.40;;
46222;SDS011;31943;51.410;7.564;2022-11-20T08:39:40;12.77;;;9.40;;
46222;SDS011;31943;51.410;7.564;2022-11-20T08:42:08;13.45;;;10.25;;
46222;SDS011;31943;51.410;7.564;2022-11-20T08:44:34;12.27;;;9.15;;
46222;SDS011;31943;51.410;7.564;2022-11-20T08:46:59;12.30;;;9.52;;
46222;SDS011;31943;51.410;7.564;2022-11-20T08:49:26;12.70;;;8.68;;
46222;SDS011;31943;51.410;7.564;2022-11-20T08:51:51;12.77;;;8.65;;
46222;SDS011;31943;51.410;7.564;2022-11-20T08:54:17;12.32;;;9.00;;
46222;SDS011;31943;51.410;7.564;2022-11-20T08:56:43;12.60;;;8.02;;
46222;SDS011;31943;51.410;7.564;2022-11-20T08:59:12;12.43;;;9.50;;
46222;SDS011;31943;51.410;7.564;2022-11-20T09:01:39;13.13;;;8.15;;
46222;SDS011;31943;51.410;7.564;2022-11-20T09:04:05;11.15;;;8.55;;
46222;SDS011;31943;51.410;7.564;2022-11-20T09:06:31;10.38;;;8.25;;
46222;SDS011;31943;51.410;7.564;2022-11-20T09:08:57;11.10;;;7.90;;
46222;SDS011;31943;51.410;7.564;2022-11-20T09:11:23;12.32;;;8.32;;
46222;SDS011;31943;51.410;7.564;2022-11-20T09:13:50;10.45;;;8.18;;
46222;SDS011;31943;51.410;7.564;2022-11-20T09:16:21;9.98;;;7.38;;
46222;SDS011;31943;51.410;7.564;2022-11-20T09:18:50;9.30;;;7.60;;
46222;SDS011;31943;51.410;7.564;2022-11-20T09:21:16;10.77;;;7.80;;
46222;SDS011;31943;51.410;7.564;2022-11-20T09:23:42;10.68;;;8.27;;
46222;SDS011;31943;51.410;7.564;2022-11-20T09:26:09;10.70;;;7.75;;
46222;SDS011;31943;51.410;7.564;2022-11-20T09:28:36;10.90;;;7.90;;
46222;SDS011;31943;51.410;7.564;2022-11-20T09:31:04;10.38;;;7.05;;
46222;SDS011;31943;51.410;7.564;2022-11-20T09:33:33;11.00;;;8.32;;
46222;SDS011;31943;51.410;7.564;2022-11-20T09:35:58;12.63;;;8.82;;
46222;SDS011;31943;51.410;7.564;2022-11-20T09:38:24;12.23;;;8.77;;
46222;SDS011;31943;51.410;7.564;2022-11-20T09:40:51;10.05;;;7.65;;
46222;SDS011;31943;51.410;7.564;2022-11-20T09:43:24;10.23;;;7.75;;
46222;SDS011;31943;51.410;7.564;2022-11-20T09:46:00;11.82;;;9.00;;
46222;SDS011;31943;51.410;7.564;2022-11-20T09:48:39;11.25;;;8.43;;
46222;SDS011;31943;51.410;7.564;2022-11-20T09:51:14;15.82;;;10.23;;
46222;SDS011;31943;51.410;7.564;2022-11-20T09:53:52;16.00;;;12.20;;
46222;SDS011;31943;51.410;7.564;2022-11-20T09:56:31;14.25;;;11.45;;
46222;SDS011;31943;51.410;7.564;2022-11-20T09:58:59;13.60;;;10.13;;
46222;SDS011;31943;51.410;7.564;2022-11-20T10:01:31;14.90;;;11.25;;
46222;SDS011;31943;51.410;7.564;2022-11-20T10:04:02;13.43;;;10.50;;
46222;SDS011;31943;51.410;7.564;2022-11-20T10:06:37;13.77;;;10.95;;
46222;SDS011;31943;51.410;7.564;2022-11-20T10:09:14;11.82;;;10.45;;
46222;SDS011;31943;51.410;7.564;2022-11-20T10:11:51;13.60;;;11.65;;
46222;SDS011;31943;51.410;7.564;2022-11-20T10:14:27;15.13;;;12.35;;
46222;SDS011;31943;51.410;7.564;2022-11-20T10:17:02;13.15;;;11.65;;
46222;SDS011;31943;51.410;7.564;2022-11-20T10:19:43;17.50;;;13.50;;
46222;SDS011;31943;51.410;7.564;2022-11-20T10:22:21;14.77;;;12.38;;
46222;SDS011;31943;51.410;7.564;2022-11-20T10:25:00;12.10;;;9.75;;
46222;SDS011;31943;51.410;7.564;2022-11-20T10:27:35;13.13;;;10.10;;
46222;SDS011;31943;51.410;7.564;2022-11-20T10:30:08;16.02;;;11.32;;
46222;SDS011;31943;51.410;7.564;2022-11-20T10:32:36;12.65;;;9.93;;
46222;SDS011;31943;51.410;7.564;2022-11-20T10:35:11;13.00;;;10.23;;
46222;SDS011;31943;51.410;7.564;2022-11-20T10:37:45;13.10;;;10.30;;
46222;SDS011;31943;51.410;7.564;2022-11-20T10:40:19;12.32;;;9.35;;
46222;SDS011;31943;51.410;7.564;2022-11-20T10:42:50;11.80;;;9.13;;
46222;SDS011;31943;51.410;7.564;2022-11-20T10:45:19;12.52;;;10.88;;
46222;SDS011;31943;51.410;7.564;2022-11-20T10:48:07;12.95;;;9.25;;
46222;SDS011;31943;51.410;7.564;2022-11-20T10:53:47;13.27;;;10.07;;
46222;SDS011;31943;51.410;7.564;2022-11-20T10:56:20;16.90;;;11.25;;
46222;SDS011;31943;51.410;7.564;2022-11-20T10:58:55;13.60;;;10.48;;
46222;SDS011;31943;51.410;7.564;2022-11-20T11:01:30;12.38;;;9.32;;
46222;SDS011;31943;51.410;7.564;2022-11-20T11:04:07;12.25;;;9.68;;
46222;SDS011;31943;51.410;7.564;2022-11-20T11:06:50;13.40;;;9.90;;
46222;SDS011;31943;51.410;7.564;2022-11-20T11:09:21;14.70;;;10.27;;
46222;SDS011;31943;51.410;7.564;2022-11-20T11:11:58;12.40;;;9.40;;
46222;SDS011;31943;51.410;7.564;2022-11-20T11:14:25;14.48;;;11.80;;
46222;SDS011;31943;51.410;7.564;2022-11-20T11:16:51;12.68;;;9.95;;
46222;SDS011;31943;51.410;7.564;2022-11-20T11:19:19;12.95;;;10.25;;
46222;SDS011;31943;51.410;7.564;2022-11-20T11:21:46;14.55;;;11.98;;
46222;SDS011;31943;51.410;7.564;2022-11-20T11:24:19;18.55;;;12.77;;
46222;SDS011;31943;51.410;7.564;2022-11-20T11:26:51;17.13;;;12.52;;
46222;SDS011;31943;51.410;7.564;2022-11-20T11:29:22;15.27;;;12.52;;
46222;SDS011;31943;51.410;7.564;2022-11-20T11:31:51;15.05;;;11.07;;
46222;SDS011;31943;51.410;7.564;2022-11-20T11:34:28;13.98;;;10.77;;
46222;SDS011;31943;51.410;7.564;2022-11-20T11:36:55;14.98;;;11.98;;
46222;SDS011;31943;51.410;7.564;2022-11-20T11:39:28;12.90;;;10.10;;
46222;SDS011;31943;51.410;7.564;2022-11-20T11:41:57;13.50;;;11.53;;
46222;SDS011;31943;51.410;7.564;2022-11-20T11:44:25;15.15;;;11.27;;
46222;SDS011;31943;51.410;7.564;2022-11-20T11:46:55;13.60;;;10.45;;
46222;SDS011;31943;51.410;7.564;2022-11-20T11:49:25;13.70;;;10.30;;
46222;SDS011;31943;51.410;7.564;2022-11-20T11:51:59;12.50;;;8.95;;
46222;SDS011;31943;51.410;7.564;2022-11-20T11:54:32;14.27;;;11.00;;
46222;SDS011;31943;51.410;7.564;2022-11-20T11:59:33;12.00;;;8.50;;
46222;SDS011;31943;51.410;7.564;2022-11-20T12:02:15;11.82;;;9.20;;
46222;SDS011;31943;51.410;7.564;2022-11-20T12:04:54;12.43;;;9.77;;
46222;SDS011;31943;51.410;7.564;2022-11-20T12:07:29;13.10;;;9.73;;
46222;SDS011;31943;51.410;7.564;2022-11-20T12:10:08;11.98;;;9.35;;
46222;SDS011;31943;51.410;7.564;2022-11-20T12:12:42;11.82;;;9.43;;
46222;SDS011;31943;51.410;7.564;2022-11-20T12:15:12;13.80;;;10.38;;
46222;SDS011;31943;51.410;7.564;2022-11-20T12:17:49;13.48;;;9.38;;
46222;SDS011;31943;51.410;7.564;2022-11-20T12:20:16;11.85;;;9.38;;
46222;SDS011;31943;51.410;7.564;2022-11-20T12:22:44;11.30;;;9.13;;
46222;SDS011;31943;51.410;7.564;2022-11-20T12:25:21;12.02;;;8.68;;
46222;SDS011;31943;51.410;7.564;2022-11-20T12:30:35;11.38;;;8.65;;
46222;SDS011;31943;51.410;7.564;2022-11-20T12:33:26;12.48;;;7.85;;
46222;SDS011;31943;51.410;7.564;2022-11-20T12:36:11;9.05;;;6.97;;
46222;SDS011;31943;51.410;7.564;2022-11-20T12:38:51;10.07;;;7.18;;
46222;SDS011;31943;51.410;7.564;2022-11-20T12:41:30;8.65;;;6.65;;
46222;SDS011;31943;51.410;7.564;2022-11-20T12:44:11;8.55;;;6.72;;
46222;SDS011;31943;51.410;7.564;2022-11-20T12:46:47;8.95;;;6.68;;
46222;SDS011;31943;51.410;7.564;2022-11-20T12:49:28;8.15;;;5.97;;
46222;SDS011;31943;51.410;7.564;2022-11-20T12:52:15;8.23;;;6.90;;
46222;SDS011;31943;51.410;7.564;2022-11-20T12:54:55;8.50;;;6.30;;
46222;SDS011;31943;51.410;7.564;2022-11-20T12:57:36;9.77;;;7.05;;
46222;SDS011;31943;51.410;7.564;2022-11-20T13:00:11;8.10;;;6.28;;
46222;SDS011;31943;51.410;7.564;2022-11-20T13:02:46;7.63;;;6.65;;
46222;SDS011;31943;51.410;7.564;2022-11-20T13:05:34;8.75;;;7.03;;
46222;SDS011;31943;51.410;7.564;2022-11-20T13:08:07;8.98;;;6.80;;
46222;SDS011;31943;51.410;7.564;2022-11-20T13:10:43;18.73;;;12.00;;
46222;SDS011;31943;51.410;7.564;2022-11-20T13:13:17;13.98;;;9.70;;
46222;SDS011;31943;51.410;7.564;2022-11-20T13:15:50;11.70;;;8.48;;
46222;SDS011;31943;51.410;7.564;2022-11-20T13:18:22;11.05;;;7.70;;
46222;SDS011;31943;51.410;7.564;2022-11-20T13:20:48;11.70;;;8.45;;
46222;SDS011;31943;51.410;7.564;2022-11-20T13:23:22;11.95;;;8.52;;
46222;SDS011;31943;51.410;7.564;2022-11-20T13:25:50;11.30;;;8.75;;
46222;SDS011;31943;51.410;7.564;2022-11-20T13:28:27;11.02;;;8.18;;
46222;SDS011;31943;51.410;7.564;2022-11-20T13:30:55;11.82;;;8.80;;
46222;SDS011;31943;51.410;7.564;2022-11-20T13:33:22;11.00;;;8.20;;
46222;SDS011;31943;51.410;7.564;2022-11-20T13:35:55;11.52;;;9.05;;
46222;SDS011;31943;51.410;7.564;2022-11-20T13:38:22;19.27;;;13.13;;
46222;SDS011;31943;51.410;7.564;2022-11-20T13:40:52;15.15;;;11.60;;
46222;SDS011;31943;51.410;7.564;2022-11-20T13:43:22;13.15;;;9.82;;
46222;SDS011;31943;51.410;7.564;2022-11-20T13:46:00;13.07;;;9.23;;
46222;SDS011;31943;51.410;7.564;2022-11-20T13:48:30;12.63;;;9.07;;
46222;SDS011;31943;51.410;7.564;2022-11-20T13:51:06;17.75;;;13.15;;
46222;SDS011;31943;51.410;7.564;2022-11-20T13:53:50;26.60;;;17.35;;
46222;SDS011;31943;51.410;7.564;2022-11-20T13:56:29;20.15;;;14.40;;
46222;SDS011;31943;51.410;7.564;2022-11-20T13:59:11;16.65;;;12.05;;
46222;SDS011;31943;51.410;7.564;2022-11-20T14:01:45;16.02;;;11.40;;
46222;SDS011;31943;51.410;7.564;2022-11-20T14:04:12;12.07;;;9.43;;
46222;SDS011;31943;51.410;7.564;2022-11-20T14:06:43;12.82;;;9.23;;
46222;SDS011;31943;51.410;7.564;2022-11-20T14:09:12;25.75;;;16.58;;
46222;SDS011;31943;51.410;7.564;2022-11-20T14:11:49;45.42;;;27.27;;
46222;SDS011;31943;51.410;7.564;2022-11-20T14:14:17;26.75;;;18.05;;
46222;SDS011;31943;51.410;7.564;2022-11-20T14:16:44;14.77;;;11.23;;
46222;SDS011;31943;51.410;7.564;2022-11-20T14:22:06;28.23;;;17.42;;
46222;SDS011;31943;51.410;7.564;2022-11-20T14:24:34;16.23;;;11.38;;
46222;SDS011;31943;51.410;7.564;2022-11-20T14:27:00;15.02;;;10.60;;
46222;SDS011;31943;51.410;7.564;2022-11-20T14:29:28;16.10;;;10.35;;
46222;SDS011;31943;51.410;7.564;2022-11-20T14:31:58;16.45;;;11.43;;
46222;SDS011;31943;51.410;7.564;2022-11-20T14:34:24;16.92;;;12.05;;
46222;SDS011;31943;51.410;7.564;2022-11-20T14:36:55;13.20;;;10.25;;
46222;SDS011;31943;51.410;7.564;2022-11-20T14:39:25;14.05;;;10.55;;
46222;SDS011;31943;51.410;7.564;2022-11-20T14:41:56;15.70;;;11.15;;
46222;SDS011;31943;51.410;7.564;2022-11-20T14:44:25;15.27;;;11.20;;
46222;SDS011;31943;51.410;7.564;2022-11-20T14:46:55;13.80;;;10.15;;